Time;durP1;ratioP1;P1;durP2;ratioP2;P2;SDS_P1;SDS_P2;PMS_P1;PMS_P2;Temp;Humidity;BMP_temperature;BMP_pressure;BME280_temperature;BME280_humidity;BME280_pressure;Samples;Min_cycle;Max_cycle;Signal;HPM_P1;HPM_P2
2023/01/12 00:02:51;;;;;;;47.43;12.15;;;;;;;-2.61;69.79;101395.20;1751143;80;21512;-78
2023/01/12 00:05:56;;;;;;;57.30;9.35;;;;;;;-2.49;69.23;101405.40;1749816;82;21207;-77
2023/01/12 00:09:02;;;;;;;55.25;8.08;;;;;;;-2.67;69.59;101404.84;1750797;82;21270;-78
2023/01/12 00:12:08;;;;;;;47.95;8.75;;;;;;;-2.86;70.43;101406.09;1749796;82;21164;-77
2023/01/12 00:15:08;;;;;;;55.48;10.60;;;;;;;-2.74;70.55;101407.37;1750098;82;21255;-77
2023/01/12 00:18:02;;;;;;;56.28;12.13;;;;;;;-2.58;69.66;101408.48;1751348;82;21219;-77
2023/01/12 00:20:50;;;;;;;25.17;10.10;;;;;;;-2.47;69.76;101414.70;1751267;82;21806;-77
2023/01/12 00:23:56;;;;;;;34.05;9.85;;;;;;;-2.27;68.73;101402.63;1750964;82;21282;-77
2023/01/12 00:27:03;;;;;;;41.35;11.45;;;;;;;-2.32;68.75;101412.21;1751053;82;21259;-78
2023/01/12 00:30:07;;;;;;;59.93;9.30;;;;;;;-2.43;69.16;101404.25;1751184;82;21199;-77
2023/01/12 00:33:14;;;;;;;28.77;9.35;;;;;;;-2.49;69.48;101397.80;1751204;82;21806;-77
2023/01/12 00:36:21;;;;;;;47.78;16.02;;;;;;;-2.30;68.92;101407.28;1751275;82;21309;-77
2023/01/12 00:39:27;;;;;;;27.60;8.28;;;;;;;-2.39;69.12;101416.11;1750879;82;21191;-77
2023/01/12 00:45:59;;;;;;;31.82;9.53;;;;;;;-2.37;68.77;101411.55;1749903;82;21226;-77
2023/01/12 00:49:05;;;;;;;46.73;10.85;;;;;;;-2.41;68.97;101411.75;1749915;82;21758;-78
2023/01/12 00:52:12;;;;;;;33.20;9.70;;;;;;;-2.18;68.49;101416.97;1751095;82;21168;-78
2023/01/12 00:55:19;;;;;;;33.87;12.60;;;;;;;-2.17;68.29;101416.49;1750570;82;21211;-77
2023/01/12 00:58:24;;;;;;;44.40;7.95;;;;;;;-2.28;68.35;101407.59;1751253;82;21191;-78
2023/01/12 01:01:31;;;;;;;40.30;8.25;;;;;;;-2.32;68.53;101406.85;1751275;82;21184;-77
2023/01/12 01:04:36;;;;;;;39.67;12.13;;;;;;;-2.59;69.20;101401.34;1746918;81;21882;-77
2023/01/12 01:07:42;;;;;;;32.00;10.82;;;;;;;-2.62;69.54;101388.11;1745603;82;21172;-78
2023/01/12 01:10:48;;;;;;;35.98;10.45;;;;;;;-2.53;69.41;101383.69;1722422;82;21208;-78
2023/01/12 01:13:53;;;;;;;50.08;7.72;;;;;;;-2.59;69.50;101391.97;1744180;82;21751;-77
2023/01/12 01:16:59;;;;;;;33.98;9.45;;;;;;;-2.53;69.36;101385.03;1745543;82;21184;-77
2023/01/12 01:20:04;;;;;;;49.20;13.13;;;;;;;-2.50;69.04;101375.50;1745623;82;21176;-78
2023/01/12 01:23:10;;;;;;;25.57;11.38;;;;;;;-2.42;69.04;101375.17;1745591;82;21172;-78
2023/01/12 01:26:19;;;;;;;36.90;10.15;;;;;;;-2.58;69.11;101372.31;1744590;82;21247;-78
2023/01/12 01:29:25;;;;;;;36.63;10.43;;;;;;;-2.35;68.90;101393.61;1746489;82;21215;-78
2023/01/12 01:32:30;;;;;;;17.65;8.08;;;;;;;-2.30;68.62;101377.80;1745827;82;21224;-78
2023/01/12 01:35:36;;;;;;;28.47;10.23;;;;;;;-1.94;67.75;101397.56;1745359;82;21675;-78
2023/01/12 01:38:42;;;;;;;33.02;12.00;;;;;;;-2.00;67.21;101391.14;1745597;82;21219;-78
2023/01/12 01:41:47;;;;;;;24.87;6.97;;;;;;;-2.17;67.16;101394.58;1744465;82;21227;-78
2023/01/12 01:44:55;;;;;;;35.80;7.90;;;;;;;-1.93;66.77;101400.66;1745722;82;21176;-77
2023/01/12 01:48:06;;;;;;;28.80;12.53;;;;;;;-2.22;67.21;101402.42;1746160;82;21175;-77
2023/01/12 01:51:09;;;;;;;26.95;10.63;;;;;;;-2.17;67.54;101404.42;1745879;82;21183;-77
2023/01/12 01:54:15;;;;;;;52.80;12.93;;;;;;;-1.93;66.76;101414.08;1745842;82;21168;-78
2023/01/12 01:57:21;;;;;;;31.05;10.48;;;;;;;-2.17;67.42;101401.27;1745677;82;21227;-77
2023/01/12 02:00:27;;;;;;;28.65;8.65;;;;;;;-2.29;67.53;101396.95;1745665;82;21175;-78
2023/01/12 02:03:33;;;;;;;25.12;9.25;;;;;;;-2.35;67.88;101389.59;1745720;82;21172;-77
2023/01/12 02:06:39;;;;;;;23.22;9.43;;;;;;;-2.24;67.66;101396.28;1749527;80;21271;-77
2023/01/12 02:09:46;;;;;;;35.40;8.53;;;;;;;-2.30;67.71;101391.20;1751225;82;21155;-77
2023/01/12 02:16:25;;;;;;;25.37;9.40;;;;;;;-2.26;67.97;101372.67;1750566;82;21207;-77
2023/01/12 02:20:05;;;;;;;26.82;10.70;;;;;;;-2.23;67.83;101382.80;1751217;82;21243;-77
2023/01/12 02:23:55;;;;;;;16.57;10.13;;;;;;;-2.30;68.17;101385.84;1751366;82;21773;-77
2023/01/12 02:27:34;;;;;;;24.18;8.60;;;;;;;-2.86;69.44;101380.19;1750235;82;21231;-78
2023/01/12 02:31:07;;;;;;;24.35;9.05;;;;;;;-3.05;70.41;101373.86;1751362;82;21190;-78
2023/01/12 02:34:49;;;;;;;23.98;11.73;;;;;;;-2.95;70.19;101364.98;1751237;82;21179;-78
2023/01/12 02:38:28;;;;;;;29.60;15.08;;;;;;;-3.18;70.91;101372.15;1751306;82;21250;-78
2023/01/12 02:45:51;;;;;;;24.18;8.43;;;;;;;-3.13;71.53;101365.27;1749823;82;21746;-78
2023/01/12 02:49:16;;;;;;;17.35;6.78;;;;;;;-2.93;70.64;101369.31;1751359;82;21179;-78
2023/01/12 02:52:23;;;;;;;32.17;11.85;;;;;;;-2.94;70.74;101372.06;1749862;82;21199;-77
2023/01/12 02:55:29;;;;;;;31.40;12.30;;;;;;;-2.96;70.93;101364.58;1751263;82;21199;-77
2023/01/12 02:58:35;;;;;;;26.52;8.38;;;;;;;-3.06;71.30;101364.06;1751266;82;21219;-78
2023/01/12 03:01:41;;;;;;;26.50;11.60;;;;;;;-2.90;70.84;101364.31;1751286;82;21227;-77
2023/01/12 03:04:47;;;;;;;19.00;9.63;;;;;;;-2.70;70.26;101370.15;1751274;82;21793;-78
2023/01/12 03:08:10;;;;;;;23.60;11.33;;;;;;;-2.63;69.93;101379.67;1744200;82;21750;-78
2023/01/12 03:11:25;;;;;;;32.95;15.32;;;;;;;-2.88;70.67;101366.44;1745849;82;21172;-77
2023/01/12 03:14:29;;;;;;;34.00;9.38;;;;;;;-2.79;70.61;101364.71;1723052;82;21231;-78
2023/01/12 03:17:49;;;;;;;30.62;13.18;;;;;;;-2.91;70.76;101363.91;1744180;82;21192;-78
2023/01/12 03:20:57;;;;;;;;;;;;;;;-2.84;70.98;101352.86;1748309;82;21223;-78
2023/01/12 03:24:16;;;;;;;31.40;10.30;;;;;;;-2.73;70.75;101363.13;1745780;82;20199;-78
2023/01/12 03:27:45;;;;;;;18.32;7.87;;;;;;;-2.67;70.35;101360.66;1744785;82;21216;-77
2023/01/12 03:30:55;;;;;;;21.42;11.22;;;;;;;-2.75;70.48;101353.41;1745842;82;21227;-77
2023/01/12 03:34:00;;;;;;;26.55;12.47;;;;;;;-2.89;71.21;101356.67;1745813;82;21164;-78
2023/01/12 03:37:38;;;;;;;32.78;14.00;;;;;;;-2.95;71.24;101356.47;1760672;80;21274;-77
2023/01/12 03:40:46;;;;;;;19.70;9.08;;;;;;;-2.99;71.70;101354.86;1745588;82;21168;-78
2023/01/12 03:43:56;;;;;;;15.18;7.08;;;;;;;-3.12;72.16;101344.25;1746580;82;21176;-77
2023/01/12 03:47:10;;;;;;;21.15;9.23;;;;;;;-3.27;72.85;101336.87;1745226;82;21187;-77
2023/01/12 03:50:29;;;;;;;22.05;9.63;;;;;;;-3.34;73.33;101321.52;1745736;82;21227;-77
2023/01/12 03:53:34;;;;;;;37.42;9.63;;;;;;;-3.30;73.10;101332.97;1745637;82;21747;-77
2023/01/12 03:56:43;;;;;;;26.02;10.15;;;;;;;-3.19;72.94;101324.05;1744248;82;21227;-77
2023/01/12 03:59:50;;;;;;;19.10;12.07;;;;;;;-3.22;73.22;101322.83;1745693;82;21148;-78
2023/01/12 04:02:52;;;;;;;32.55;15.45;;;;;;;-3.28;73.51;101324.43;1745792;82;21180;-78
2023/01/12 04:05:57;;;;;;;21.20;7.92;;;;;;;-3.24;73.63;101313.53;1745690;82;21881;-77
2023/01/12 04:09:04;;;;;;;18.67;9.90;;;;;;;-3.24;73.42;101327.39;1751219;82;21227;-78
2023/01/12 04:12:10;;;;;;;17.05;10.18;;;;;;;-3.05;73.20;101323.00;1751197;82;21227;-78
2023/01/12 04:15:16;;;;;;;26.27;10.50;;;;;;;-3.12;73.33;101334.89;1751223;82;21250;-77
2023/01/12 04:18:22;;;;;;;33.75;16.85;;;;;;;-3.24;73.38;101333.61;1750307;82;21207;-78
2023/01/12 04:24:50;;;;;;;20.62;7.35;;;;;;;-2.87;72.20;101322.22;1751181;82;21180;-77
2023/01/12 04:28:02;;;;;;;25.82;12.65;;;;;;;-2.76;71.69;101325.77;1750498;82;21207;-77
2023/01/12 04:31:09;;;;;;;22.35;13.35;;;;;;;-2.98;72.35;101323.59;1751797;82;21156;-77
2023/01/12 04:34:14;;;;;;;30.08;13.25;;;;;;;-2.84;72.25;101320.73;1751195;82;21274;-77
2023/01/12 04:37:20;;;;;;;26.70;12.00;;;;;;;-2.62;71.57;101307.75;1751055;82;21199;-78
2023/01/12 04:40:26;;;;;;;15.18;9.08;;;;;;;-2.68;71.62;101325.41;1749775;82;21255;-77
2023/01/12 04:43:34;;;;;;;22.95;9.45;;;;;;;-2.63;71.34;101310.03;1750221;82;21230;-77
2023/01/12 04:46:40;;;;;;;27.60;11.63;;;;;;;-2.65;71.30;101318.59;1751222;82;21184;-77
2023/01/12 04:49:45;;;;;;;21.25;9.40;;;;;;;-2.67;71.47;101307.09;1749849;82;21192;-77
2023/01/12 04:52:52;;;;;;;26.20;12.37;;;;;;;-2.60;71.41;101304.52;1750002;82;21191;-77
2023/01/12 04:55:58;;;;;;;18.80;9.25;;;;;;;-2.49;70.93;101300.91;1751178;82;21185;-78
2023/01/12 04:59:06;;;;;;;25.68;10.40;;;;;;;-2.42;70.73;101304.17;1750102;82;21187;-77
2023/01/12 05:02:11;;;;;;;30.52;9.75;;;;;;;-2.63;70.95;101298.84;1751340;82;21184;-77
2023/01/12 05:05:10;;;;;;;27.98;9.20;;;;;;;-2.26;70.13;101301.17;1751431;82;21223;-77
2023/01/12 05:11:40;;;;;;;16.20;6.72;;;;;;;-1.93;69.10;101305.47;1744338;82;21231;-77
2023/01/12 05:14:46;;;;;;;26.70;11.05;;;;;;;-1.86;68.54;101304.22;1744723;82;21258;-77
2023/01/12 05:17:53;;;;;;;19.12;10.30;;;;;;;-1.97;68.58;101312.39;1745549;82;21216;-78
2023/01/12 05:20:58;;;;;;;26.93;10.35;;;;;;;-1.60;67.71;101308.79;1745668;82;21718;-77
2023/01/12 05:24:04;;;;;;;19.90;11.03;;;;;;;-1.62;67.30;101297.28;1745715;82;21262;-77
2023/01/12 05:27:11;;;;;;;29.20;10.63;;;;;;;-1.81;67.77;101295.48;1745720;82;21238;-77
2023/01/12 05:30:17;;;;;;;19.98;8.38;;;;;;;-1.54;67.31;101307.17;1744542;82;21761;-77
2023/01/12 05:33:23;;;;;;;15.08;8.68;;;;;;;-1.63;67.61;101296.41;1746370;82;21747;-78
2023/01/12 05:36:30;;;;;;;33.63;16.57;;;;;;;-1.11;66.01;101296.51;1744265;82;21302;-77
2023/01/12 05:39:36;;;;;;;24.25;11.93;;;;;;;-1.50;66.33;101303.41;1745399;81;21746;-77
2023/01/12 05:46:10;;;;;;;20.20;10.72;;;;;;;-2.34;69.32;101292.64;1745604;82;21164;-78
2023/01/12 05:49:17;;;;;;;34.15;11.28;;;;;;;-2.51;70.28;101281.34;1745645;82;21766;-77
2023/01/12 05:52:23;;;;;;;18.25;9.30;;;;;;;-2.84;71.31;101282.38;1746507;80;21176;-78
2023/01/12 05:55:29;;;;;;;20.50;9.03;;;;;;;-3.04;72.44;101278.36;1737691;82;21283;-77
2023/01/12 05:58:35;;;;;;;23.30;9.90;;;;;;;-2.74;71.84;101285.52;1744185;82;21220;-77
2023/01/12 06:01:42;;;;;;;18.07;11.28;;;;;;;-2.68;71.33;101283.45;1769786;80;21164;-77
2023/01/12 06:04:48;;;;;;;14.25;9.20;;;;;;;-2.21;70.04;101275.06;1756044;80;21203;-78
2023/01/12 06:07:54;;;;;;;22.82;9.33;;;;;;;-2.09;69.55;101293.23;1751175;80;21220;-78
2023/01/12 06:11:00;;;;;;;22.48;10.68;;;;;;;-2.33;69.77;101290.36;1751116;80;21837;-78
2023/01/12 06:14:06;;;;;;;13.88;9.53;;;;;;;-2.70;69.80;101287.13;1741475;82;21172;-78
2023/01/12 06:17:12;;;;;;;24.32;10.53;;;;;;;-2.75;71.27;101295.36;1741323;82;21203;-78
2023/01/12 06:20:16;;;;;;;31.52;9.98;;;;;;;-2.81;71.90;101293.43;1742939;80;21163;-79
2023/01/12 06:23:21;;;;;;;23.40;11.75;;;;;;;-2.53;71.14;101295.28;1749419;80;21156;-78
2023/01/12 06:26:29;;;;;;;19.90;13.38;;;;;;;-2.44;71.02;101296.21;1760596;80;21164;-79
2023/01/12 06:29:35;;;;;;;26.68;14.45;;;;;;;-2.49;71.12;101290.63;1765099;80;21195;-78
2023/01/12 06:32:41;;;;;;;8.00;5.05;;;;;;;-2.26;71.05;101301.17;1759042;80;21157;-79
2023/01/12 06:35:47;;;;;;;14.60;9.28;;;;;;;-2.25;70.47;101296.72;1761938;80;21263;-79
2023/01/12 06:38:53;;;;;;;29.98;12.33;;;;;;;-2.09;70.02;101295.05;1733711;80;21206;-78
2023/01/12 06:45:22;;;;;;;23.87;12.13;;;;;;;-2.17;70.19;101289.16;1756591;80;21195;-78
2023/01/12 06:48:29;;;;;;;12.20;7.80;;;;;;;-2.07;69.62;101288.69;1765066;80;21727;-78
2023/01/12 06:51:36;;;;;;;26.45;13.58;;;;;;;-1.88;69.11;101287.82;1724893;82;21188;-78
2023/01/12 06:54:41;;;;;;;15.85;13.08;;;;;;;-2.00;69.26;101283.03;1693504;84;21197;-78
2023/01/12 06:57:41;;;;;;;20.05;8.75;;;;;;;-2.33;69.99;101287.20;1685308;83;21193;-79
2023/01/12 07:00:49;;;;;;;15.32;7.62;;;;;;;-2.41;70.37;101287.14;1687839;83;21518;-79
2023/01/12 07:03:55;;;;;;;22.73;8.98;;;;;;;-2.43;70.67;101281.87;1717968;82;21174;-78
2023/01/12 07:07:04;;;;;;;8.75;5.25;;;;;;;-2.55;70.88;101282.41;1725174;82;21237;-79
2023/01/12 07:10:11;;;;;;;17.62;7.75;;;;;;;-2.66;71.18;101287.39;1710217;82;21322;-79
2023/01/12 07:13:11;;;;;;;23.85;8.00;;;;;;;-2.66;71.32;101294.09;1711257;82;21822;-79
2023/01/12 07:16:08;;;;;;;16.67;9.70;;;;;;;-2.70;71.79;101283.10;1705825;82;21234;-77
2023/01/12 07:19:14;;;;;;;25.05;11.20;;;;;;;-2.62;72.01;101279.62;1719813;82;21196;-78
2023/01/12 07:22:19;;;;;;;25.48;15.63;;;;;;;-2.48;71.68;101287.91;1713817;82;22341;-80
2023/01/12 07:25:25;;;;;;;29.75;13.35;;;;;;;-2.36;71.81;101279.29;1715695;82;21232;-79
2023/01/12 07:28:32;;;;;;;13.65;8.70;;;;;;;-2.13;70.87;101276.89;1713979;82;21850;-78
2023/01/12 07:31:38;;;;;;;23.30;10.63;;;;;;;-2.00;70.57;101281.21;1686054;83;21241;-80
2023/01/12 07:34:47;;;;;;;16.55;4.83;;;;;;;-1.95;69.80;101283.20;1725086;82;21226;-78
2023/01/12 07:37:58;;;;;;;23.92;9.78;;;;;;;-2.25;69.92;101284.66;1721449;82;21224;-78
2023/01/12 07:42:22;;;;;;;11.50;5.83;;;;;;;-2.19;70.36;101283.02;1719450;82;21180;-78
2023/01/12 07:44:18;;;;;;;13.90;10.13;;;;;;;-2.24;70.42;101265.81;1725080;82;21186;-79
2023/01/12 07:47:26;;;;;;;23.20;11.05;;;;;;;-1.19;67.93;101281.73;1718397;82;21813;-80
2023/01/12 07:50:35;;;;;;;24.67;9.73;;;;;;;-0.57;64.82;101284.30;1714371;82;21193;-78
2023/01/12 07:53:42;;;;;;;40.43;17.60;;;;;;;-2.01;70.18;101280.82;1715331;82;21214;-79
2023/01/12 07:56:49;;;;;;;21.55;13.43;;;;;;;-2.10;69.56;101292.84;1686187;83;21193;-77
2023/01/12 07:59:55;;;;;;;22.98;12.13;;;;;;;-1.74;68.99;101292.49;1709014;82;21315;-78
2023/01/12 08:03:14;;;;;;;23.00;11.93;;;;;;;-1.80;68.67;101285.14;1713057;82;21279;-78
2023/01/12 08:06:20;;;;;;;21.05;7.95;;;;;;;-1.96;69.26;101278.78;1720708;82;21244;-78
2023/01/12 08:09:28;;;;;;;17.15;7.50;;;;;;;-2.02;70.01;101276.84;1701014;83;21201;-79
2023/01/12 08:12:38;;;;;;;31.02;14.45;;;;;;;-1.86;69.75;101272.52;1700538;82;21201;-78
2023/01/12 08:15:48;;;;;;;17.30;9.35;;;;;;;-1.65;68.88;101275.48;1695196;83;21847;-78
2023/01/12 08:19:13;;;;;;;18.60;8.05;;;;;;;-1.71;69.05;101266.88;1701768;83;21224;-78
2023/01/12 08:22:22;;;;;;;18.52;10.13;;;;;;;-1.65;68.92;101267.91;1694013;83;22575;-79
2023/01/12 08:25:32;;;;;;;15.72;5.95;;;;;;;-1.52;68.66;101272.20;1676158;84;21294;-78
2023/01/12 08:31:24;;;;;;;26.70;12.78;;;;;;;-1.85;69.46;101275.11;1855401;76;28129;-78
2023/01/12 08:34:31;;;;;;;16.87;9.03;;;;;;;-1.50;68.67;101264.97;1823276;77;21176;-78
2023/01/12 08:37:30;;;;;;;16.07;10.18;;;;;;;-1.59;68.78;101257.77;1817263;77;21135;-78
2023/01/12 08:40:23;;;;;;;15.72;7.53;;;;;;;-1.70;69.28;101255.19;1798470;78;21177;-78
2023/01/12 08:43:09;;;;;;;25.72;16.65;;;;;;;-2.13;70.07;101255.44;1796443;78;21153;-77
2023/01/12 08:46:06;;;;;;;15.72;10.23;;;;;;;-1.76;69.71;101253.69;1802236;78;21280;-77
2023/01/12 08:49:17;;;;;;;24.63;15.68;;;;;;;-1.91;70.31;101252.62;1767332;80;21153;-79
2023/01/12 08:52:24;;;;;;;17.77;7.15;;;;;;;-1.50;69.01;101251.08;1740840;81;21263;-79
2023/01/12 08:55:30;;;;;;;19.87;12.37;;;;;;;-1.34;68.30;101235.92;1743265;80;21165;-79
2023/01/12 08:58:35;;;;;;;41.42;26.85;;;;;;;-1.23;67.59;101230.00;1744329;80;21169;-79
2023/01/12 09:01:41;;;;;;;23.05;16.75;;;;;;;-1.37;67.99;101240.57;1743850;80;21345;-78
2023/01/12 09:04:47;;;;;;;25.85;17.32;;;;;;;-1.43;68.11;101236.39;1741982;80;21255;-78
2023/01/12 09:07:53;;;;;;;17.05;8.73;;;;;;;-1.30;68.02;101234.83;1745560;81;21232;-78
2023/01/12 09:11:00;;;;;;;7.70;4.83;;;;;;;-1.12;67.81;101233.02;1742651;80;21248;-79
2023/01/12 09:14:05;;;;;;;29.63;12.07;;;;;;;-1.00;67.39;101230.16;1771263;80;21207;-78
2023/01/12 09:17:13;;;;;;;43.10;17.32;;;;;;;-0.76;66.72;101222.61;1747073;80;21177;-78
2023/01/12 09:20:20;;;;;;;29.87;19.42;;;;;;;-0.85;66.58;101230.72;1747600;81;21204;-79
2023/01/12 09:23:21;;;;;;;30.40;21.02;;;;;;;-0.37;65.17;101226.81;1750701;80;21185;-79
2023/01/12 09:26:30;;;;;;;23.27;11.78;;;;;;;-0.58;65.54;101234.20;1748090;80;21196;-78
2023/01/12 09:29:36;;;;;;;;;;;;;;;-0.90;66.52;101222.48;1747755;81;21216;-79
2023/01/12 09:32:42;;;;;;;37.90;11.45;;;;;;;-0.92;66.88;101217.68;1746474;81;20206;-79
2023/01/12 09:35:47;;;;;;;33.13;20.08;;;;;;;-0.73;66.55;101231.87;1742042;80;461146;-77
2023/01/12 09:38:52;;;;;;;28.85;7.33;;;;;;;-0.64;66.02;101219.77;1754424;81;21246;-80
2023/01/12 09:48:52;;;;;;;22.30;11.50;;;;;;;-0.86;66.30;101218.69;1752085;81;21727;-78
2023/01/12 09:52:36;;;;;;;18.95;12.10;;;;;;;-0.93;66.67;101218.16;1752691;81;21255;-79
2023/01/12 09:56:01;;;;;;;21.12;8.50;;;;;;;-0.93;66.46;101216.81;1754517;79;21193;-78
2023/01/12 09:59:20;;;;;;;22.82;14.25;;;;;;;-0.99;66.62;101206.84;1753231;81;21175;-78
2023/01/12 10:02:27;;;;;;;16.60;6.67;;;;;;;-0.95;67.04;101203.06;1739915;81;21199;-78
2023/01/12 10:06:03;;;;;;;16.37;5.42;;;;;;;-0.96;66.99;101206.22;1746061;81;21819;-78
2023/01/12 10:09:10;;;;;;;24.15;7.90;;;;;;;-0.81;66.42;101205.40;1744804;80;21461;-80
2023/01/12 10:12:30;;;;;;;16.27;7.08;;;;;;;-0.55;65.94;101193.73;1754143;81;22230;-77
2023/01/12 10:15:49;;;;;;;33.90;7.95;;;;;;;-0.52;65.56;101190.86;1751645;79;21243;-79
2023/01/12 10:18:54;;;;;;;19.62;8.93;;;;;;;-0.50;65.51;101194.83;1748367;81;21189;-78
2023/01/12 10:22:00;;;;;;;17.87;10.98;;;;;;;-0.76;66.17;101186.34;1741620;79;21211;-79
2023/01/12 10:25:05;;;;;;;18.90;11.50;;;;;;;-0.83;66.27;101193.02;1761328;79;21180;-79
2023/01/12 10:28:38;;;;;;;11.90;6.95;;;;;;;-0.58;65.90;101188.52;1715024;81;21236;-80
2023/01/12 10:31:44;;;;;;;20.77;9.38;;;;;;;-1.41;67.01;101190.23;1721468;81;21269;-80
2023/01/12 10:34:57;;;;;;;19.75;7.22;;;;;;;-1.16;67.75;101179.56;1714018;82;21231;-80
2023/01/12 10:38:03;;;;;;;9.88;5.15;;;;;;;-0.99;67.44;101174.62;1727764;82;22143;-80
2023/01/12 10:41:19;;;;;;;15.35;5.12;;;;;;;-0.87;67.21;101168.61;1716644;82;21185;-77
2023/01/12 10:44:25;;;;;;;10.95;4.72;;;;;;;-0.54;66.24;101165.91;1730666;82;21283;-78
2023/01/12 10:47:31;;;;;;;13.30;6.75;;;;;;;-0.49;65.74;101170.55;1748343;81;21358;-78
2023/01/12 10:50:38;;;;;;;21.73;5.35;;;;;;;-0.56;65.61;101171.85;1732524;82;21197;-78
2023/01/12 10:54:04;;;;;;;14.98;5.10;;;;;;;-0.56;65.60;101166.48;1724342;82;21278;-79
2023/01/12 10:57:28;;;;;;;10.38;5.83;;;;;;;-0.62;66.29;101161.41;1729209;81;21200;-78
2023/01/12 11:00:34;;;;;;;17.10;7.65;;;;;;;-0.72;66.98;101166.91;1722102;82;22375;-78
2023/01/12 11:03:42;;;;;;;16.25;7.55;;;;;;;-0.56;66.58;101161.97;1725891;82;22194;-79
2023/01/12 11:06:53;;;;;;;11.48;6.20;;;;;;;-0.41;66.01;101155.34;1729082;82;21890;-79
2023/01/12 11:10:00;;;;;;;24.02;7.95;;;;;;;-0.24;65.18;101154.38;1720331;82;21198;-78
2023/01/12 11:13:11;;;;;;;15.68;6.53;;;;;;;-0.22;64.88;101153.84;1716334;83;21185;-78
2023/01/12 11:16:27;;;;;;;18.10;5.95;;;;;;;-0.33;65.51;101139.19;1730463;82;21272;-78
2023/01/12 11:19:37;;;;;;;11.03;6.37;;;;;;;-0.06;64.96;101147.95;1731914;82;21241;-78
2023/01/12 11:22:36;;;;;;;17.98;6.15;;;;;;;0.16;64.17;101153.84;1725797;82;22299;-78
2023/01/12 11:25:30;;;;;;;8.63;5.58;;;;;;;-0.05;63.95;101147.89;1739746;81;21208;-78
2023/01/12 11:28:46;;;;;;;16.10;5.50;;;;;;;-0.16;64.79;101150.79;1729503;82;21208;-79
2023/01/12 11:31:51;;;;;;;18.77;6.12;;;;;;;0.10;64.70;101150.17;1729059;82;21241;-80
2023/01/12 11:35:04;;;;;;;13.45;4.83;;;;;;;0.29;62.94;101149.10;1721589;81;21260;-78
2023/01/12 11:38:18;;;;;;;11.45;4.72;;;;;;;0.38;62.55;101148.56;1710839;83;21172;-79
2023/01/12 11:41:38;;;;;;;16.35;7.72;;;;;;;0.62;61.79;101141.70;1722658;81;21285;-79
2023/01/12 11:44:52;;;;;;;;;;;;;;;1.23;60.05;101152.75;1723243;81;21204;-79
2023/01/12 11:48:01;;;;;;;17.37;5.37;;;;;;;1.17;59.61;101143.68;1724101;83;20265;-79
2023/01/12 11:51:08;;;;;;;16.87;4.97;;;;;;;0.59;60.96;101133.80;1710006;81;21252;-78
2023/01/12 11:54:16;;;;;;;12.93;5.00;;;;;;;0.33;61.93;101123.72;1711969;81;21184;-78
2023/01/12 11:57:40;;;;;;;16.55;5.78;;;;;;;0.54;61.77;101131.87;1702918;83;21272;-79
2023/01/12 12:00:59;;;;;;;9.00;5.05;;;;;;;0.23;62.80;101118.02;1724943;83;21177;-78
2023/01/12 12:04:38;;;;;;;16.85;6.62;;;;;;;0.41;62.75;101121.44;1712374;81;21318;-78
2023/01/12 12:08:03;;;;;;;10.50;4.60;;;;;;;0.30;62.95;101123.92;1718606;81;21262;-78
2023/01/12 12:11:18;;;;;;;16.67;7.12;;;;;;;0.12;63.80;101116.45;1704653;81;21228;-78
2023/01/12 12:14:44;;;;;;;19.77;5.90;;;;;;;0.14;64.06;101119.89;1697270;83;21258;-78
2023/01/12 12:17:57;;;;;;;14.45;4.85;;;;;;;0.03;64.27;101111.12;1734094;81;21230;-79
2023/01/12 12:21:40;;;;;;;20.65;6.45;;;;;;;0.09;64.27;101125.55;1701976;83;21197;-78
2023/01/12 12:25:08;;;;;;;19.25;5.72;;;;;;;-0.01;64.44;101131.94;1722622;83;21723;-78
2023/01/12 12:28:45;;;;;;;20.57;8.75;;;;;;;-0.01;64.38;101136.45;1716839;81;21168;-78
2023/01/12 12:32:38;;;;;;;14.55;6.30;;;;;;;-0.04;64.67;101133.97;1697205;83;21182;-78
2023/01/12 12:36:02;;;;;;;12.05;5.85;;;;;;;0.06;64.71;101127.57;1754678;80;21751;-78
2023/01/12 12:39:35;;;;;;;10.95;6.22;;;;;;;0.20;64.11;101130.32;1736737;81;21260;-78
2023/01/12 12:46:52;;;;;;;22.30;5.85;;;;;;;0.18;64.35;101146.53;1729923;81;21256;-80
2023/01/12 12:49:59;;;;;;;11.50;6.03;;;;;;;0.36;63.32;101145.94;1726085;81;21253;-79
2023/01/12 12:53:27;;;;;;;14.75;6.83;;;;;;;0.07;63.56;101144.96;1705162;81;21976;-78
2023/01/12 12:56:33;;;;;;;11.28;5.95;;;;;;;0.13;63.87;101143.25;1736222;81;21415;-79
2023/01/12 12:59:50;;;;;;;12.80;4.85;;;;;;;0.11;64.39;101135.76;1723430;82;21184;-79
2023/01/12 13:03:01;;;;;;;16.80;5.15;;;;;;;0.10;64.52;101142.10;1719360;82;21205;-78
2023/01/12 13:06:36;;;;;;;17.17;5.20;;;;;;;0.03;64.96;101142.05;1713295;82;21827;-78
2023/01/12 13:09:42;;;;;;;12.47;4.40;;;;;;;0.16;64.71;101137.70;1733662;81;21240;-77
2023/01/12 13:12:48;;;;;;;13.43;5.22;;;;;;;0.15;64.35;101130.59;1729071;80;21149;-79
2023/01/12 13:15:54;;;;;;;19.23;5.62;;;;;;;0.19;64.12;101124.56;1730841;82;21158;-79
2023/01/12 13:19:05;;;;;;;21.97;7.97;;;;;;;0.07;64.10;101122.09;1736313;80;21192;-79
2023/01/12 13:22:28;;;;;;;;;;;;;;;-0.02;64.24;101118.59;1750501;81;21774;-79
2023/01/12 13:25:33;;;;;;;9.38;5.28;;;;;;;0.13;64.10;101127.59;1728986;81;20248;-78
2023/01/12 13:28:39;;;;;;;16.23;6.35;;;;;;;-0.06;64.43;101130.48;1729861;81;21192;-80
2023/01/12 13:31:44;;;;;;;9.80;5.50;;;;;;;-0.09;64.87;101137.40;1730265;81;21883;-80
2023/01/12 13:34:50;;;;;;;13.40;6.20;;;;;;;-0.10;64.74;101135.16;1732196;81;21751;-77
2023/01/12 13:38:12;;;;;;;8.28;4.80;;;;;;;-0.19;64.96;101132.99;1733661;81;21212;-79
2023/01/12 13:45:07;;;;;;;9.00;5.08;;;;;;;-0.02;64.80;101132.04;1730677;81;21193;-78
2023/01/12 13:48:12;;;;;;;22.22;6.62;;;;;;;-0.02;64.73;101132.04;1737698;81;21234;-78
2023/01/12 13:51:28;;;;;;;22.90;5.55;;;;;;;0.14;64.50;101130.66;1746089;81;21442;-78
2023/01/12 13:54:33;;;;;;;17.23;10.75;;;;;;;0.08;64.54;101129.20;1725707;81;21531;-79
2023/01/12 13:57:40;;;;;;;9.55;6.15;;;;;;;-0.17;65.33;101131.58;1733303;81;21208;-78
2023/01/12 14:00:47;;;;;;;15.60;6.85;;;;;;;0.31;64.56;101140.45;1738670;81;21360;-78
2023/01/12 14:04:14;;;;;;;21.45;8.13;;;;;;;0.11;64.42;101135.76;1772225;80;21199;-79
2023/01/12 14:07:28;;;;;;;19.20;7.03;;;;;;;-0.21;65.22;101128.67;1768587;80;22183;-78
2023/01/12 14:11:12;;;;;;;26.15;15.08;;;;;;;-0.12;64.98;101130.36;1754098;81;21220;-78
2023/01/12 14:18:04;;;;;;;18.32;9.00;;;;;;;-0.28;65.46;101131.72;1755136;81;21205;-77
2023/01/12 14:21:09;;;;;;;18.62;5.62;;;;;;;-0.34;66.14;101136.08;1754238;81;21247;-78
2023/01/12 14:24:26;;;;;;;14.20;7.28;;;;;;;-0.18;65.66;101128.52;1755033;81;21255;-78
2023/01/12 14:27:31;;;;;;;28.70;19.75;;;;;;;-0.23;65.55;101126.56;1755434;81;21196;-78
2023/01/12 14:30:37;;;;;;;16.82;11.65;;;;;;;-0.22;65.42;101128.30;1754669;81;21241;-78
2023/01/12 14:33:44;;;;;;;21.62;13.32;;;;;;;-0.23;65.26;101128.77;1756873;81;21200;-78
2023/01/12 14:36:51;;;;;;;28.83;23.87;;;;;;;-0.43;66.00;101125.84;1754400;81;21811;-78
2023/01/12 14:39:56;;;;;;;34.65;24.60;;;;;;;-0.32;65.82;101125.27;1756013;81;21314;-78
2023/01/12 14:46:39;;;;;;;27.82;20.82;;;;;;;-0.33;66.23;101132.47;1756883;81;21153;-78
2023/01/12 14:49:45;;;;;;;36.70;29.72;;;;;;;-0.33;66.10;101135.16;1757087;81;21200;-78
2023/01/12 14:52:52;;;;;;;28.10;15.98;;;;;;;-0.37;65.95;101137.62;1757002;81;21829;-78
2023/01/12 14:55:57;;;;;;;30.70;19.80;;;;;;;-0.60;66.44;101140.24;1755907;81;21208;-78
2023/01/12 14:59:13;;;;;;;34.60;22.60;;;;;;;-0.50;66.61;101132.53;1756917;81;21232;-77
2023/01/12 15:02:28;;;;;;;32.42;19.35;;;;;;;-0.41;66.55;101133.36;1757015;81;21192;-78
2023/01/12 15:05:36;;;;;;;32.17;17.12;;;;;;;-0.40;65.96;101136.44;1756049;81;21267;-79
2023/01/12 15:08:43;;;;;;;31.37;17.07;;;;;;;-0.23;65.11;101134.16;1756976;81;21173;-78
2023/01/12 15:11:49;;;;;;;57.73;40.92;;;;;;;0.15;64.37;101131.94;1756755;81;21769;-78
2023/01/12 15:14:54;;;;;;;55.33;32.55;;;;;;;-0.03;64.90;101134.34;1756610;81;21220;-77
2023/01/12 15:28:14;;;;;;;29.10;18.57;;;;;;;-0.15;65.38;101136.38;1756876;81;21185;-78
2023/01/12 15:31:29;;;;;;;24.25;12.90;;;;;;;-0.69;66.54;101138.54;1755706;81;21200;-78
2023/01/12 15:34:36;;;;;;;12.03;6.47;;;;;;;-0.47;66.08;101134.17;1756803;81;21224;-77